Time;durP1;ratioP1;P1;durP2;ratioP2;P2;SDS_P1;SDS_P2;PMS_P1;PMS_P2;Temp;Humidity;BMP_temperature;BMP_pressure;BME280_temperature;BME280_humidity;BME280_pressure;Samples;Min_cycle;Max_cycle;Signal;HPM_P1;HPM_P2
2022/03/07 00:01:03;;;;;;;11.45;6.78;;;15.70;56.40;;;;;;4062698;29;20067;-60
2022/03/07 00:03:27;;;;;;;11.27;5.97;;;15.60;56.40;;;;;;4062851;29;20055;-60
2022/03/07 00:05:52;;;;;;;13.73;7.40;;;15.60;56.50;;;;;;4063141;29;20115;-62
2022/03/07 00:08:15;;;;;;;197.98;97.60;;;15.60;56.60;;;;;;4060699;29;20166;-60
2022/03/07 00:10:56;;;;;;;75.65;38.28;;;15.60;56.70;;;;;;4063243;29;20048;-60
2022/03/07 00:13:18;;;;;;;31.60;17.10;;;15.60;56.90;;;;;;4063288;29;20056;-60
2022/03/07 00:15:40;;;;;;;25.83;13.85;;;15.60;56.80;;;;;;4063432;29;20044;-60
2022/03/07 00:18:02;;;;;;;56.28;29.35;;;15.50;56.80;;;;;;4059304;29;20476;-60
2022/03/07 00:20:26;;;;;;;56.15;30.27;;;15.50;56.80;;;;;;4056246;29;20131;-59
2022/03/07 00:22:47;;;;;;;14.30;8.50;;;15.50;56.80;;;;;;4048313;29;20525;-60
2022/03/07 00:25:10;;;;;;;11.05;7.40;;;15.50;56.70;;;;;;4050861;29;20131;-60
2022/03/07 00:27:32;;;;;;;12.73;6.88;;;15.50;56.80;;;;;;4057419;29;20123;-61
2022/03/07 00:29:54;;;;;;;6.63;3.85;;;15.50;56.80;;;;;;4058748;29;20549;-60
2022/03/07 00:32:17;;;;;;;2.80;2.20;;;15.50;56.90;;;;;;4062646;29;20059;-60
2022/03/07 00:34:39;;;;;;;67.50;33.88;;;15.40;56.90;;;;;;4062893;29;20130;-60
2022/03/07 00:37:02;;;;;;;30.50;15.82;;;15.40;57.00;;;;;;4048324;29;20049;-60
2022/03/07 00:39:25;;;;;;;83.82;41.42;;;15.40;57.00;;;;;;4058294;29;22212;-61
2022/03/07 00:41:48;;;;;;;5.32;4.00;;;15.40;57.00;;;;;;4048143;29;20053;-61
2022/03/07 00:44:11;;;;;;;3.08;2.28;;;15.40;57.00;;;;;;4047984;29;20053;-60
2022/03/07 00:46:33;;;;;;;4.32;2.88;;;15.40;57.00;;;;;;4063111;29;20059;-60
2022/03/07 00:48:58;;;;;;;2.00;1.83;;;15.30;57.10;;;;;;4047657;29;20060;-61
2022/03/07 00:51:20;;;;;;;10.93;5.68;;;15.30;57.10;;;;;;4047312;29;20059;-60
2022/03/07 00:53:44;;;;;;;11.63;6.57;;;15.30;57.10;;;;;;4047723;29;20076;-61
2022/03/07 00:56:07;;;;;;;23.42;11.18;;;15.30;57.10;;;;;;4046502;29;20051;-60
2022/03/07 00:58:29;;;;;;;43.33;18.83;;;15.30;57.10;;;;;;4046036;29;20108;-61
2022/03/07 01:00:51;;;;;;;19.25;9.50;;;15.30;57.90;;;;;;4048417;29;20053;-60
2022/03/07 01:03:14;;;;;;;12.30;5.68;;;15.30;57.10;;;;;;4063054;29;20127;-60
2022/03/07 01:05:37;;;;;;;24.48;13.23;;;15.20;57.10;;;;;;4048452;29;20051;-60
2022/03/07 01:07:59;;;;;;;25.52;12.07;;;15.20;57.00;;;;;;4053552;29;20059;-60
2022/03/07 01:10:23;;;;;;;27.15;13.13;;;15.20;57.10;;;;;;4047615;29;20131;-60
2022/03/07 01:12:45;;;;;;;9.82;3.78;;;15.20;57.20;;;;;;4046406;29;20083;-60
2022/03/07 01:15:09;;;;;;;5.30;2.17;;;15.20;57.30;;;;;;4045480;29;20061;-59
2022/03/07 01:17:31;;;;;;;24.08;14.18;;;15.20;57.40;;;;;;4047553;29;20055;-60
2022/03/07 01:19:54;;;;;;;16.02;9.32;;;15.20;57.40;;;;;;4047911;29;20067;-60
2022/03/07 01:22:16;;;;;;;20.95;13.43;;;15.10;57.50;;;;;;4046461;29;20484;-60
2022/03/07 01:24:38;;;;;;;17.92;12.70;;;15.10;57.60;;;;;;4045968;29;20052;-60
2022/03/07 01:27:02;;;;;;;13.20;9.88;;;15.10;57.50;;;;;;4051673;29;20479;-60
2022/03/07 01:29:24;;;;;;;8.18;5.32;;;15.10;57.40;;;;;;4048698;29;20066;-60
2022/03/07 01:31:46;;;;;;;2.50;2.30;;;15.00;57.40;;;;;;4057529;29;20067;-60
2022/03/07 01:34:09;;;;;;;4.40;2.08;;;15.00;57.40;;;;;;4046220;29;20104;-59
2022/03/07 01:36:31;;;;;;;3.53;2.10;;;15.10;57.40;;;;;;4044054;29;20049;-60
2022/03/07 01:38:54;;;;;;;4.05;1.90;;;15.00;57.50;;;;;;4058261;29;20162;-60
2022/03/07 01:41:19;;;;;;;2.83;1.88;;;15.00;57.60;;;;;;4062688;29;20079;-60
2022/03/07 01:43:43;;;;;;;1.73;1.38;;;15.00;57.50;;;;;;4048564;29;20553;-60
2022/03/07 01:46:04;;;;;;;3.25;1.35;;;15.00;57.50;;;;;;4047803;29;20049;-60
2022/03/07 01:48:27;;;;;;;3.13;1.30;;;15.00;57.60;;;;;;4034561;29;20098;-60
2022/03/07 01:50:49;;;;;;;1.70;1.23;;;15.00;57.60;;;;;;4046246;29;20479;-60
2022/03/07 01:53:13;;;;;;;4.13;1.98;;;14.90;57.60;;;;;;4059003;29;20056;-61
2022/03/07 01:55:36;;;;;;;2.40;1.58;;;14.90;57.60;;;;;;4032944;29;20515;-60
2022/03/07 01:57:59;;;;;;;2.45;1.23;;;14.90;57.60;;;;;;4032504;29;20555;-60
2022/03/07 02:00:28;;;;;;;1.98;1.10;;;14.90;57.60;;;;;;4045306;29;20475;-61
2022/03/07 02:02:51;;;;;;;2.05;1.35;;;14.90;57.70;;;;;;4054443;29;20052;-60
2022/03/07 02:05:21;;;;;;;4.90;1.98;;;14.90;57.80;;;;;;4049031;29;20060;-60
2022/03/07 02:07:51;;;;;;;4.15;2.25;;;14.90;57.80;;;;;;4049648;29;20221;-60
2022/03/07 02:10:14;;;;;;;3.20;1.60;;;14.80;57.90;;;;;;4048697;29;20471;-60
2022/03/07 02:12:38;;;;;;;4.25;2.15;;;14.80;57.90;;;;;;4022436;29;20545;-60
2022/03/07 02:15:02;;;;;;;3.25;1.77;;;14.80;57.90;;;;;;4040844;29;20135;-60
2022/03/07 02:17:26;;;;;;;1.15;0.95;;;14.80;57.80;;;;;;4048529;29;20170;-59
2022/03/07 02:19:50;;;;;;;2.50;1.02;;;14.80;57.80;;;;;;4048874;29;20147;-60
2022/03/07 02:22:16;;;;;;;4.85;1.55;;;14.80;57.80;;;;;;4048497;29;20052;-59
2022/03/07 02:24:42;;;;;;;1.63;1.20;;;14.80;57.80;;;;;;4034883;29;20139;-59
2022/03/07 02:27:07;;;;;;;1.35;0.90;;;14.80;57.90;;;;;;4049388;29;20055;-60
2022/03/07 02:29:30;;;;;;;3.13;0.85;;;14.80;57.90;;;;;;4049423;29;20052;-60
2022/03/07 02:31:57;;;;;;;3.15;1.15;;;14.70;57.80;;;;;;4042989;29;20063;-59
2022/03/07 02:34:23;;;;;;;1.13;1.00;;;14.70;57.80;;;;;;4048085;29;20053;-59
2022/03/07 02:36:47;;;;;;;1.40;1.15;;;14.70;58.20;;;;;;4050498;29;20053;-59
2022/03/07 02:39:11;;;;;;;1.15;1.05;;;14.80;58.50;;;;;;4055798;29;20044;-60
2022/03/07 02:41:37;;;;;;;1.20;1.10;;;14.80;58.40;;;;;;4050044;29;20079;-59
2022/03/07 02:43:59;;;;;;;4.55;1.67;;;14.90;58.30;;;;;;4048059;29;20068;-59
2022/03/07 02:46:21;;;;;;;2.05;1.60;;;14.90;58.20;;;;;;4060328;29;20052;-60
2022/03/07 02:48:44;;;;;;;1.40;1.00;;;15.00;58.10;;;;;;4050089;29;20049;-60
2022/03/07 02:51:06;;;;;;;3.15;1.38;;;15.00;58.00;;;;;;4064217;29;20064;-60
2022/03/07 02:53:28;;;;;;;2.10;1.50;;;15.00;57.90;;;;;;4064810;29;20048;-60
2022/03/07 02:55:52;;;;;;;2.00;1.40;;;15.00;57.90;;;;;;4062835;29;20391;-60
2022/03/07 02:58:15;;;;;;;4.00;1.55;;;15.00;57.90;;;;;;4064660;29;20126;-59
2022/03/07 03:00:38;;;;;;;1.40;1.30;;;15.00;57.80;;;;;;4063015;29;20143;-60
2022/03/07 03:03:00;;;;;;;5.78;1.40;;;15.00;57.50;;;;;;4064556;29;20545;-59
2022/03/07 03:05:22;;;;;;;1.65;1.30;;;15.00;57.30;;;;;;4064582;29;20060;-59
2022/03/07 03:07:47;;;;;;;3.47;1.70;;;14.90;57.30;;;;;;4064575;29;20085;-59
2022/03/07 03:10:10;;;;;;;1.58;1.48;;;14.90;57.40;;;;;;4062651;29;20059;-59
2022/03/07 03:12:33;;;;;;;3.05;1.85;;;14.90;57.40;;;;;;4053287;29;20568;-59
2022/03/07 03:14:55;;;;;;;3.50;1.45;;;14.80;57.50;;;;;;4048085;29;20124;-59
2022/03/07 03:17:18;;;;;;;1.60;1.50;;;14.80;58.00;;;;;;4048608;29;20411;-59
2022/03/07 03:19:40;;;;;;;3.05;1.70;;;14.80;58.30;;;;;;4048493;29;20044;-59
2022/03/07 03:22:02;;;;;;;3.63;1.60;;;14.90;58.30;;;;;;4062320;29;20061;-60
2022/03/07 03:24:24;;;;;;;2.67;1.80;;;14.90;58.20;;;;;;4063877;29;20052;-60
2022/03/07 03:26:48;;;;;;;3.65;1.48;;;14.90;58.20;;;;;;4064619;29;20452;-59
2022/03/07 03:29:11;;;;;;;1.95;1.80;;;14.90;58.00;;;;;;4056249;29;20139;-60
2022/03/07 03:31:33;;;;;;;2.53;2.00;;;14.90;58.00;;;;;;4054777;29;20048;-60
2022/03/07 03:33:55;;;;;;;3.75;1.85;;;14.90;57.90;;;;;;4047792;29;20176;-60
2022/03/07 03:36:18;;;;;;;3.13;1.60;;;14.90;57.90;;;;;;4048864;29;20044;-60
2022/03/07 03:38:41;;;;;;;4.68;1.90;;;14.90;58.20;;;;;;4048773;29;20056;-60
2022/03/07 03:41:03;;;;;;;4.40;2.00;;;14.90;58.20;;;;;;4055571;29;20076;-59
2022/03/07 03:43:24;;;;;;;2.97;1.83;;;14.90;58.20;;;;;;4048581;29;20052;-59
2022/03/07 03:45:48;;;;;;;7.70;2.00;;;15.00;58.00;;;;;;4049771;29;20060;-59
2022/03/07 03:48:10;;;;;;;5.55;1.80;;;15.00;57.90;;;;;;4055037;29;20055;-60
2022/03/07 03:50:32;;;;;;;4.88;2.15;;;15.00;57.80;;;;;;4048575;29;20079;-60
2022/03/07 03:52:56;;;;;;;4.32;1.98;;;15.00;57.80;;;;;;4044798;29;20187;-60
2022/03/07 03:55:19;;;;;;;3.40;1.92;;;15.10;57.70;;;;;;4059924;29;20075;-59
2022/03/07 03:57:41;;;;;;;3.53;1.92;;;15.00;57.70;;;;;;4062269;29;20475;-60
2022/03/07 04:00:04;;;;;;;3.35;1.73;;;15.00;57.70;;;;;;4047509;29;20412;-60
2022/03/07 04:02:34;;;;;;;4.15;2.08;;;15.10;57.60;;;;;;4052293;29;20052;-61
2022/03/07 04:04:56;;;;;;;2.25;1.30;;;15.00;57.60;;;;;;4059072;29;20049;-59
2022/03/07 04:07:18;;;;;;;2.45;1.20;;;15.00;57.60;;;;;;4048086;29;20056;-60
2022/03/07 04:09:41;;;;;;;3.63;1.30;;;15.00;57.50;;;;;;4047989;29;20082;-59
2022/03/07 04:12:04;;;;;;;4.38;1.63;;;15.00;57.50;;;;;;4047995;29;20072;-60
2022/03/07 04:14:27;;;;;;;4.50;1.67;;;15.00;57.80;;;;;;4048332;29;20063;-59
2022/03/07 04:16:48;;;;;;;2.08;1.73;;;15.00;58.00;;;;;;4047829;29;20059;-60
2022/03/07 04:19:13;;;;;;;2.30;1.55;;;15.10;57.70;;;;;;4037236;29;20111;-60
2022/03/07 04:21:35;;;;;;;2.08;1.20;;;15.10;57.60;;;;;;4047936;29;20104;-59
2022/03/07 04:23:58;;;;;;;2.25;1.25;;;15.20;57.60;;;;;;4047671;29;20567;-59
2022/03/07 04:26:22;;;;;;;2.95;1.40;;;15.20;57.50;;;;;;4057467;29;20060;-59
2022/03/07 04:28:44;;;;;;;7.47;1.48;;;15.20;57.40;;;;;;4063243;29;20360;-59
2022/03/07 04:31:07;;;;;;;3.85;1.45;;;15.20;57.30;;;;;;4062825;29;20048;-60
2022/03/07 04:33:29;;;;;;;2.05;1.27;;;15.20;57.30;;;;;;4063018;29;20055;-60
2022/03/07 04:35:53;;;;;;;2.30;1.45;;;15.20;57.50;;;;;;4060636;29;20051;-59
2022/03/07 04:38:15;;;;;;;2.25;1.40;;;15.20;57.50;;;;;;4063472;29;20143;-60
2022/03/07 04:40:38;;;;;;;4.05;1.65;;;15.30;57.40;;;;;;4063082;29;20532;-59
2022/03/07 04:43:01;;;;;;;1.80;1.70;;;15.40;57.20;;;;;;4063117;29;20052;-60
2022/03/07 04:45:24;;;;;;;5.68;1.90;;;15.50;56.90;;;;;;4061280;29;20066;-60
2022/03/07 04:47:46;;;;;;;2.95;1.85;;;15.60;56.60;;;;;;4063027;29;20071;-60
2022/03/07 04:50:09;;;;;;;5.40;1.70;;;15.70;56.40;;;;;;4063250;29;20486;-60
2022/03/07 04:52:34;;;;;;;1.77;1.67;;;15.80;56.20;;;;;;4056054;29;20058;-59
2022/03/07 04:54:56;;;;;;;1.98;1.70;;;15.90;56.10;;;;;;4047623;29;20075;-59
2022/03/07 04:57:18;;;;;;;1.77;1.38;;;15.90;55.90;;;;;;4047396;29;20072;-60
2022/03/07 04:59:40;;;;;;;4.97;1.83;;;15.90;55.80;;;;;;4047323;29;20088;-59
2022/03/07 05:02:02;;;;;;;7.35;1.88;;;16.00;55.70;;;;;;4056434;29;20403;-60
2022/03/07 05:04:25;;;;;;;2.28;1.90;;;16.00;55.50;;;;;;4060774;29;20566;-60
2022/03/07 05:06:50;;;;;;;3.92;1.70;;;16.00;55.60;;;;;;4047221;29;20432;-59
2022/03/07 05:09:14;;;;;;;2.97;2.00;;;16.00;55.50;;;;;;4049028;29;20062;-60
2022/03/07 05:11:37;;;;;;;2.20;1.80;;;16.00;55.50;;;;;;4048070;29;20134;-59
2022/03/07 05:13:59;;;;;;;1.85;1.67;;;16.10;55.40;;;;;;4057125;29;20152;-59
2022/03/07 05:16:21;;;;;;;3.95;1.90;;;16.10;55.30;;;;;;4063234;29;22669;-59
2022/03/07 05:18:43;;;;;;;5.80;1.90;;;16.20;55.20;;;;;;4048717;29;20164;-58
2022/03/07 05:21:05;;;;;;;5.55;2.38;;;16.20;55.10;;;;;;4062934;29;20142;-60
2022/03/07 05:23:27;;;;;;;2.10;1.58;;;16.20;55.00;;;;;;4056342;29;20053;-59
2022/03/07 05:25:51;;;;;;;3.83;1.85;;;16.20;55.00;;;;;;4048770;29;20144;-59
2022/03/07 05:28:13;;;;;;;6.38;2.35;;;16.20;55.10;;;;;;4046560;29;20506;-59
2022/03/07 05:30:35;;;;;;;7.18;2.60;;;16.20;55.10;;;;;;4047639;29;20056;-59
2022/03/07 05:32:57;;;;;;;5.65;2.22;;;16.20;55.00;;;;;;4048221;29;20068;-59
2022/03/07 05:35:21;;;;;;;4.90;2.08;;;16.20;55.00;;;;;;4062810;29;20051;-59
2022/03/07 05:37:44;;;;;;;2.80;2.20;;;16.20;55.10;;;;;;4062896;29;20103;-59
2022/03/07 05:40:09;;;;;;;4.43;2.00;;;16.20;55.10;;;;;;4065920;29;20071;-59
2022/03/07 05:42:32;;;;;;;31.38;28.73;;;16.20;55.10;;;;;;4058758;29;20060;-60
2022/03/07 05:44:54;;;;;;;4.57;2.58;;;16.10;55.00;;;;;;4064970;29;20402;-60
2022/03/07 05:47:16;;;;;;;3.42;2.33;;;16.10;55.20;;;;;;4063460;29;20052;-59
2022/03/07 05:49:38;;;;;;;5.38;2.28;;;16.00;55.30;;;;;;4062525;29;20479;-59
2022/03/07 05:52:00;;;;;;;3.85;2.35;;;16.00;55.40;;;;;;4050642;29;20415;-59
2022/03/07 05:54:23;;;;;;;2.17;1.90;;;15.90;55.60;;;;;;4049793;29;20504;-59
2022/03/07 05:56:45;;;;;;;3.00;2.25;;;15.90;55.60;;;;;;4049425;29;20080;-59
2022/03/07 05:59:09;;;;;;;4.70;2.22;;;16.00;55.50;;;;;;4061203;29;20136;-59
2022/03/07 06:01:31;;;;;;;2.85;2.03;;;16.00;55.40;;;;;;4065666;29;20051;-60
2022/03/07 06:03:54;;;;;;;3.75;1.90;;;16.00;55.40;;;;;;4052565;29;20132;-60
2022/03/07 06:06:16;;;;;;;4.82;2.30;;;16.00;55.40;;;;;;4050191;29;20080;-60
2022/03/07 06:08:38;;;;;;;2.75;2.17;;;16.00;55.40;;;;;;4053270;29;20048;-59
2022/03/07 06:11:00;;;;;;;6.53;2.88;;;16.00;55.40;;;;;;4065651;29;20051;-60
2022/03/07 06:13:22;;;;;;;5.65;3.50;;;16.00;55.30;;;;;;4064971;29;20135;-60
2022/03/07 06:15:46;;;;;;;6.13;2.95;;;16.00;55.40;;;;;;4063779;29;20227;-60
2022/03/07 06:18:09;;;;;;;3.58;2.30;;;16.00;55.30;;;;;;4065317;29;20048;-60
2022/03/07 06:20:31;;;;;;;2.95;2.75;;;16.00;55.30;;;;;;4065060;29;20159;-60
2022/03/07 06:22:53;;;;;;;6.78;2.95;;;16.00;55.40;;;;;;4048612;29;20556;-60
2022/03/07 06:25:15;;;;;;;6.80;3.13;;;16.00;55.40;;;;;;4049934;29;20136;-60
2022/03/07 06:27:37;;;;;;;8.05;3.67;;;16.00;55.30;;;;;;4050036;29;20491;-59
2022/03/07 06:30:00;;;;;;;7.25;3.67;;;16.00;55.30;;;;;;4049916;29;20135;-59
2022/03/07 06:32:24;;;;;;;6.78;4.05;;;16.10;55.20;;;;;;4064493;29;20044;-59
2022/03/07 06:34:46;;;;;;;9.13;4.80;;;16.10;55.10;;;;;;4065322;29;20059;-59
2022/03/07 06:37:09;;;;;;;11.45;4.97;;;16.10;55.20;;;;;;4065022;29;20063;-60
2022/03/07 06:39:31;;;;;;;5.60;4.47;;;16.10;55.30;;;;;;4064857;29;20067;-60
2022/03/07 06:41:57;;;;;;;7.80;3.67;;;16.10;55.20;;;;;;4064380;29;20048;-59
2022/03/07 06:44:19;;;;;;;10.75;3.33;;;16.10;55.10;;;;;;4064006;29;20067;-60
2022/03/07 06:46:42;;;;;;;6.70;3.70;;;16.10;55.20;;;;;;4058907;29;20075;-60
2022/03/07 06:49:06;;;;;;;8.50;3.58;;;16.10;55.30;;;;;;4047711;29;20490;-60
2022/03/07 06:51:28;;;;;;;8.02;3.58;;;16.10;55.10;;;;;;4055552;29;20055;-59
2022/03/07 06:53:52;;;;;;;6.50;3.00;;;16.20;54.80;;;;;;4051658;29;20159;-59
2022/03/07 06:56:17;;;;;;;4.78;2.95;;;16.30;54.60;;;;;;4054341;29;20106;-59
2022/03/07 06:58:39;;;;;;;4.35;3.05;;;16.30;54.50;;;;;;4068380;29;20136;-59
2022/03/07 07:01:01;;;;;;;8.52;3.08;;;16.30;54.30;;;;;;4073343;29;20048;-60
2022/03/07 07:03:23;;;;;;;6.20;2.78;;;16.30;54.90;;;;;;4046360;29;20535;-60
2022/03/07 07:05:46;;;;;;;6.38;4.03;;;16.20;54.50;;;;;;4047633;29;20044;-60
2022/03/07 07:08:09;;;;;;;12.45;4.03;;;16.20;54.70;;;;;;4049507;29;20063;-59
2022/03/07 07:10:31;;;;;;;6.05;3.72;;;16.20;54.70;;;;;;4061679;29;20403;-59
2022/03/07 07:12:53;;;;;;;5.40;3.10;;;16.20;54.70;;;;;;4064133;29;20067;-60
2022/03/07 07:15:16;;;;;;;9.55;3.92;;;16.20;54.60;;;;;;4050161;29;20059;-60
2022/03/07 07:17:38;;;;;;;6.93;3.42;;;16.20;54.60;;;;;;4060928;29;20079;-59
2022/03/07 07:20:00;;;;;;;7.57;3.88;;;16.10;54.60;;;;;;4060956;29;20056;-61
2022/03/07 07:22:24;;;;;;;8.25;3.70;;;16.10;55.50;;;;;;4062658;29;20056;-60
2022/03/07 07:24:49;;;;;;;6.82;3.88;;;16.10;54.60;;;;;;4063775;29;20046;-61
2022/03/07 07:27:11;;;;;;;5.53;3.70;;;16.10;54.50;;;;;;4064257;29;20073;-60
2022/03/07 07:29:34;;;;;;;5.95;3.28;;;16.10;54.40;;;;;;4040608;29;20052;-61
2022/03/07 07:31:57;;;;;;;3.63;3.15;;;16.20;54.30;;;;;;4061616;29;20451;-61
2022/03/07 07:34:19;;;;;;;5.63;3.28;;;16.10;54.20;;;;;;4061518;29;20115;-61
2022/03/07 07:36:42;;;;;;;8.18;3.30;;;16.10;54.30;;;;;;4047190;29;20578;-61
2022/03/07 07:39:05;;;;;;;7.97;3.17;;;16.10;54.50;;;;;;4061385;29;20059;-61
2022/03/07 07:41:27;;;;;;;7.25;3.63;;;16.00;54.50;;;;;;4061207;29;20495;-61
2022/03/07 07:43:50;;;;;;;4.28;3.33;;;15.90;54.60;;;;;;4061463;29;20089;-61
2022/03/07 07:46:12;;;;;;;5.55;3.60;;;15.90;54.70;;;;;;4061733;29;20060;-61
2022/03/07 07:48:35;;;;;;;5.97;3.47;;;15.80;54.80;;;;;;4060965;29;20072;-61
2022/03/07 07:50:57;;;;;;;6.07;3.15;;;15.80;55.60;;;;;;4061149;29;20060;-61
2022/03/07 07:53:19;;;;;;;3.72;3.05;;;15.70;55.00;;;;;;4060583;29;20494;-61
2022/03/07 07:55:43;;;;;;;4.07;3.38;;;15.70;55.90;;;;;;4045928;29;20151;-61
2022/03/07 07:58:06;;;;;;;4.70;3.53;;;15.60;55.20;;;;;;4046425;29;20063;-61
2022/03/07 08:00:28;;;;;;;4.35;3.95;;;15.60;55.40;;;;;;4046183;29;20052;-62
2022/03/07 08:02:51;;;;;;;7.60;3.45;;;15.60;55.60;;;;;;4061462;29;20387;-62
2022/03/07 08:05:14;;;;;;;3.55;3.25;;;15.60;55.60;;;;;;4061285;29;20140;-61
2022/03/07 08:07:36;;;;;;;6.30;3.22;;;15.70;55.40;;;;;;4061210;29;20127;-61
2022/03/07 08:09:58;;;;;;;4.43;2.85;;;15.80;55.20;;;;;;4061211;29;20056;-62
2022/03/07 08:12:22;;;;;;;7.25;3.72;;;15.90;55.00;;;;;;4061456;29;20056;-61
2022/03/07 08:14:45;;;;;;;8.88;3.78;;;16.00;54.60;;;;;;4060790;29;20050;-61
2022/03/07 08:17:08;;;;;;;7.82;4.70;;;16.10;54.50;;;;;;4059895;29;20143;-61
2022/03/07 08:19:30;;;;;;;6.63;4.03;;;16.10;55.10;;;;;;4060545;29;20642;-61
2022/03/07 08:21:52;;;;;;;11.57;4.80;;;16.10;54.40;;;;;;4061137;29;20048;-61
2022/03/07 08:24:14;;;;;;;7.18;4.32;;;16.10;54.30;;;;;;4060985;29;20063;-62
2022/03/07 08:26:38;;;;;;;8.00;4.15;;;16.00;54.30;;;;;;4060936;29;20135;-61
2022/03/07 08:29:02;;;;;;;5.63;3.90;;;16.00;54.40;;;;;;4059212;29;20052;-63
2022/03/07 08:31:24;;;;;;;8.02;3.50;;;16.00;54.40;;;;;;4059794;29;20127;-61
2022/03/07 08:33:47;;;;;;;8.23;3.83;;;15.90;54.50;;;;;;4060330;29;20173;-60
2022/03/07 08:36:09;;;;;;;4.57;3.80;;;16.00;54.70;;;;;;4060931;29;20048;-61
2022/03/07 08:38:31;;;;;;;4.35;3.88;;;16.00;54.70;;;;;;4060466;29;20131;-61
2022/03/07 08:40:54;;;;;;;5.78;3.67;;;16.00;54.60;;;;;;4057945;29;20056;-61
2022/03/07 08:43:16;;;;;;;8.90;3.95;;;16.10;54.60;;;;;;4045185;29;20056;-60
2022/03/07 08:45:40;;;;;;;7.25;3.33;;;16.10;55.30;;;;;;4060278;29;20056;-61
2022/03/07 08:48:16;;;;;;;3.50;3.20;;;16.10;54.60;;;;;;4059808;29;20084;-61
2022/03/07 08:50:38;;;;;;;5.32;2.65;;;16.10;54.70;;;;;;4060320;29;20048;-61
2022/03/07 08:53:01;;;;;;;4.65;2.95;;;16.10;54.80;;;;;;4060693;29;20489;-60
2022/03/07 08:55:23;;;;;;;4.55;2.58;;;16.10;54.90;;;;;;4060435;29;20131;-61
2022/03/07 08:57:45;;;;;;;6.47;2.80;;;16.00;54.60;;;;;;4059956;29;20497;-60
2022/03/07 09:00:11;;;;;;;6.10;2.75;;;15.90;54.70;;;;;;4059533;29;20079;-60
2022/03/07 09:02:41;;;;;;;6.32;2.75;;;15.90;55.00;;;;;;4059701;29;20135;-60
2022/03/07 09:05:05;;;;;;;6.50;2.65;;;15.80;55.20;;;;;;4046190;29;20100;-60
2022/03/07 09:07:28;;;;;;;6.03;2.47;;;15.80;55.30;;;;;;4045467;29;20060;-60
2022/03/07 09:09:51;;;;;;;5.65;3.03;;;15.90;55.50;;;;;;4060361;29;20067;-60
2022/03/07 09:12:13;;;;;;;5.35;2.58;;;15.90;55.30;;;;;;4060785;29;20103;-60
2022/03/07 09:14:36;;;;;;;2.97;2.00;;;15.90;55.90;;;;;;4063080;29;20501;-60
2022/03/07 09:16:58;;;;;;;4.35;2.03;;;16.00;55.10;;;;;;4063117;29;20060;-61
2022/03/07 09:19:22;;;;;;;4.10;2.47;;;16.00;55.30;;;;;;4062680;29;20056;-60
2022/03/07 09:21:44;;;;;;;3.22;2.22;;;16.00;55.40;;;;;;4063052;29;20103;-61
2022/03/07 09:24:07;;;;;;;5.60;3.80;;;16.00;55.40;;;;;;4048884;29;20044;-60
2022/03/07 09:26:29;;;;;;;3.15;2.45;;;16.00;54.80;;;;;;4063773;29;20055;-61
2022/03/07 09:28:51;;;;;;;6.78;2.80;;;16.00;55.20;;;;;;4062552;29;20043;-60
2022/03/07 09:31:14;;;;;;;8.13;2.83;;;16.00;55.60;;;;;;4062932;29;20052;-60
2022/03/07 09:33:36;;;;;;;6.72;2.33;;;16.00;55.70;;;;;;4062677;29;20600;-60
2022/03/07 09:36:00;;;;;;;7.05;2.00;;;16.00;55.70;;;;;;4063270;29;20062;-60
2022/03/07 09:38:23;;;;;;;6.07;2.10;;;16.10;55.70;;;;;;4063355;29;20443;-61
2022/03/07 09:40:46;;;;;;;4.05;2.15;;;16.20;55.50;;;;;;4063146;29;20056;-60
2022/03/07 09:43:09;;;;;;;3.55;2.28;;;16.30;55.40;;;;;;4062695;29;20055;-61
2022/03/07 09:45:31;;;;;;;7.30;2.03;;;16.40;55.30;;;;;;4061993;29;20075;-61
2022/03/07 09:47:54;;;;;;;5.10;1.83;;;16.40;55.30;;;;;;4047906;29;20059;-61
2022/03/07 09:50:17;;;;;;;5.93;2.17;;;16.40;55.30;;;;;;4062603;29;20139;-60
2022/03/07 09:52:44;;;;;;;4.03;1.83;;;16.40;55.90;;;;;;4063281;29;20056;-60
2022/03/07 09:55:09;;;;;;;4.95;1.65;;;16.30;55.00;;;;;;4062147;29;20048;-60
2022/03/07 09:57:32;;;;;;;3.35;1.70;;;16.30;55.40;;;;;;4061450;29;20151;-64
2022/03/07 09:59:55;;;;;;;2.80;1.55;;;16.30;55.40;;;;;;4062280;29;20544;-63
2022/03/07 10:02:22;;;;;;;3.72;1.55;;;16.20;55.50;;;;;;4062710;29;20052;-64
2022/03/07 10:04:46;;;;;;;3.40;1.55;;;16.20;55.50;;;;;;4062864;29;20060;-63
2022/03/07 10:07:09;;;;;;;2.97;1.27;;;16.30;55.60;;;;;;4062854;29;20060;-63
2022/03/07 10:09:32;;;;;;;4.78;1.63;;;16.40;56.30;;;;;;4060726;29;20052;-63
2022/03/07 10:12:00;;;;;;;4.25;1.30;;;16.50;55.30;;;;;;4033198;29;20128;-63
2022/03/07 10:14:32;;;;;;;4.13;1.52;;;16.50;55.00;;;;;;4046311;29;20108;-63
2022/03/07 10:16:54;;;;;;;3.45;1.45;;;16.50;54.00;;;;;;4061608;29;20066;-64
2022/03/07 10:19:17;;;;;;;3.92;1.58;;;16.50;54.30;;;;;;4061620;29;20131;-63
2022/03/07 10:21:46;;;;;;;3.00;1.40;;;16.50;54.70;;;;;;4061923;29;20479;-63
2022/03/07 10:24:10;;;;;;;4.40;1.30;;;16.50;54.40;;;;;;4060478;29;20109;-62
2022/03/07 10:26:37;;;;;;;3.90;1.48;;;16.40;54.70;;;;;;4061401;29;20060;-63
2022/03/07 10:29:00;;;;;;;3.40;1.40;;;16.40;55.10;;;;;;4061510;29;20055;-62
2022/03/07 10:31:45;;;;;;;5.72;1.70;;;16.30;55.10;;;;;;4061368;29;20063;-63
2022/03/07 10:34:10;;;;;;;3.78;1.35;;;16.30;55.40;;;;;;4061268;29;20052;-63
2022/03/07 10:36:34;;;;;;;4.43;1.65;;;16.20;55.50;;;;;;4047151;29;20136;-62
2022/03/07 10:38:57;;;;;;;6.68;1.90;;;16.20;54.70;;;;;;4062026;29;20491;-63
2022/03/07 10:41:19;;;;;;;3.60;1.70;;;16.10;55.60;;;;;;4062196;29;20062;-62
2022/03/07 10:43:49;;;;;;;4.50;1.70;;;16.10;56.00;;;;;;4061859;29;20541;-62
2022/03/07 10:46:11;;;;;;;4.18;1.67;;;16.00;56.00;;;;;;4061926;29;20047;-61
2022/03/07 10:48:42;;;;;;;4.50;1.40;;;16.10;56.10;;;;;;4061406;29;20083;-62
2022/03/07 10:51:04;;;;;;;4.68;1.63;;;16.00;55.80;;;;;;4061344;29;20052;-62
2022/03/07 10:53:27;;;;;;;2.70;1.90;;;16.00;56.00;;;;;;4061080;29;21388;-64
2022/03/07 10:55:54;;;;;;;3.28;1.90;;;16.00;56.50;;;;;;4061562;29;20048;-64
2022/03/07 10:58:17;;;;;;;6.82;1.75;;;16.00;56.80;;;;;;4061837;29;20071;-63
2022/03/07 11:00:51;;;;;;;5.40;1.90;;;16.00;55.30;;;;;;4061913;29;20513;-63
2022/03/07 11:03:17;;;;;;;3.80;1.92;;;15.90;54.50;;;;;;4061120;29;20186;-63
2022/03/07 11:05:39;;;;;;;7.65;1.92;;;15.90;54.50;;;;;;4061770;29;20052;-63
2022/03/07 11:08:02;;;;;;;4.90;2.10;;;15.90;55.60;;;;;;4061994;29;21032;-63
2022/03/07 11:10:24;;;;;;;4.43;2.30;;;15.90;52.80;;;;;;4061941;29;20189;-64
2022/03/07 11:12:46;;;;;;;2.58;1.60;;;15.90;54.90;;;;;;4061842;29;20064;-64
2022/03/07 11:15:12;;;;;;;3.67;1.60;;;15.90;54.30;;;;;;4061927;29;20052;-63
2022/03/07 11:17:39;;;;;;;5.65;1.85;;;15.80;51.50;;;;;;4061670;29;20056;-63
2022/03/07 11:20:02;;;;;;;8.10;2.28;;;15.90;53.10;;;;;;4061451;29;20479;-60
2022/03/07 11:22:25;;;;;;;4.72;2.38;;;15.80;54.80;;;;;;4061690;29;20437;-60
2022/03/07 11:24:48;;;;;;;2.55;1.75;;;15.80;55.40;;;;;;4061296;29;20439;-60
2022/03/07 11:27:11;;;;;;;3.33;2.05;;;15.80;53.30;;;;;;4060558;29;20067;-60
2022/03/07 11:29:35;;;;;;;3.47;2.25;;;15.80;52.00;;;;;;4061040;29;20483;-60
2022/03/07 11:32:01;;;;;;;5.13;2.50;;;15.70;51.40;;;;;;4061208;29;20116;-60
2022/03/07 11:34:25;;;;;;;2.75;1.90;;;15.70;52.00;;;;;;4060536;29;20082;-60
2022/03/07 11:36:49;;;;;;;4.55;2.05;;;15.70;52.30;;;;;;4060080;29;20553;-60
2022/03/07 11:39:12;;;;;;;4.53;2.05;;;15.60;54.00;;;;;;4061181;29;20051;-60
2022/03/07 11:41:37;;;;;;;3.35;1.75;;;15.60;53.70;;;;;;4061106;29;20052;-60
2022/03/07 11:44:01;;;;;;;7.32;1.83;;;15.50;54.20;;;;;;4061037;29;20139;-60
2022/03/07 11:46:25;;;;;;;3.35;2.28;;;15.50;53.10;;;;;;4060952;29;20100;-60
2022/03/07 11:48:47;;;;;;;3.45;1.63;;;15.50;50.50;;;;;;4060199;29;20395;-60
2022/03/07 11:51:18;;;;;;;2.33;1.58;;;15.50;50.80;;;;;;4060947;29;20048;-60
2022/03/07 11:53:44;;;;;;;1.48;1.00;;;15.50;50.90;;;;;;4060074;29;20052;-60
2022/03/07 11:56:17;;;;;;;2.10;1.00;;;15.50;51.50;;;;;;4045790;29;20052;-60
2022/03/07 11:58:48;;;;;;;2.50;1.17;;;15.50;52.10;;;;;;4060044;29;20063;-60
2022/03/07 12:01:12;;;;;;;1.20;1.10;;;15.40;51.00;;;;;;4060144;29;20435;-60
2022/03/07 12:03:35;;;;;;;4.30;1.02;;;15.40;51.70;;;;;;4060767;29;20402;-60
2022/03/07 12:06:02;;;;;;;1.67;1.00;;;15.40;52.00;;;;;;4060324;29;20106;-60
2022/03/07 12:08:26;;;;;;;2.22;1.30;;;15.40;53.50;;;;;;4060877;29;20060;-60
2022/03/07 12:10:57;;;;;;;1.55;1.45;;;15.40;53.50;;;;;;4060619;29;20052;-60
2022/03/07 12:13:23;;;;;;;1.27;1.00;;;15.50;51.80;;;;;;4059860;29;20483;-59
2022/03/07 12:15:50;;;;;;;1.85;1.10;;;15.40;49.80;;;;;;4060517;29;20048;-62
2022/03/07 12:18:13;;;;;;;1.63;1.27;;;15.40;49.50;;;;;;4059249;29;20048;-61
2022/03/07 12:20:47;;;;;;;2.03;1.35;;;15.40;48.30;;;;;;4060370;29;20137;-62
2022/03/07 12:23:09;;;;;;;3.00;1.20;;;15.40;48.50;;;;;;4060010;29;20507;-62
2022/03/07 12:25:34;;;;;;;2.92;1.48;;;15.40;50.10;;;;;;4060264;29;20048;-62